sensor_id;sensor_type;location;lat;lon;timestamp;P1;durP1;ratioP1;P2;durP2;ratioP2
9370;SDS011;4725;48.384;8.984;2022-09-01T00:00:05;14.60;;;9.83;;
9370;SDS011;4725;48.384;8.984;2022-09-01T00:02:35;12.40;;;9.63;;
9370;SDS011;4725;48.384;8.984;2022-09-01T00:05:04;9.80;;;8.60;;
9370;SDS011;4725;48.384;8.984;2022-09-01T00:07:32;13.10;;;9.30;;
9370;SDS011;4725;48.384;8.984;2022-09-01T00:10:00;11.93;;;9.60;;
9370;SDS011;4725;48.384;8.984;2022-09-01T00:12:28;14.07;;;9.20;;
9370;SDS011;4725;48.384;8.984;2022-09-01T00:14:55;9.70;;;8.80;;
9370;SDS011;4725;48.384;8.984;2022-09-01T00:17:23;9.97;;;8.93;;
9370;SDS011;4725;48.384;8.984;2022-09-01T00:19:50;12.53;;;8.63;;
9370;SDS011;4725;48.384;8.984;2022-09-01T00:22:18;10.67;;;9.30;;
9370;SDS011;4725;48.384;8.984;2022-09-01T00:24:45;9.23;;;8.27;;
9370;SDS011;4725;48.384;8.984;2022-09-01T00:27:12;14.63;;;9.33;;
9370;SDS011;4725;48.384;8.984;2022-09-01T00:29:39;10.03;;;8.40;;
9370;SDS011;4725;48.384;8.984;2022-09-01T00:32:06;8.53;;;7.57;;
9370;SDS011;4725;48.384;8.984;2022-09-01T00:34:33;9.33;;;7.97;;
9370;SDS011;4725;48.384;8.984;2022-09-01T00:37:00;9.87;;;8.07;;
9370;SDS011;4725;48.384;8.984;2022-09-01T00:39:28;9.83;;;8.17;;
9370;SDS011;4725;48.384;8.984;2022-09-01T00:41:55;10.83;;;9.80;;
9370;SDS011;4725;48.384;8.984;2022-09-01T00:44:23;11.17;;;9.00;;
9370;SDS011;4725;48.384;8.984;2022-09-01T00:46:52;11.57;;;10.17;;
9370;SDS011;4725;48.384;8.984;2022-09-01T00:49:21;14.23;;;11.07;;
9370;SDS011;4725;48.384;8.984;2022-09-01T00:51:54;12.37;;;9.97;;
9370;SDS011;4725;48.384;8.984;2022-09-01T00:54:25;15.20;;;10.07;;
9370;SDS011;4725;48.384;8.984;2022-09-01T00:56:57;10.23;;;9.17;;
9370;SDS011;4725;48.384;8.984;2022-09-01T00:59:25;11.20;;;9.07;;
9370;SDS011;4725;48.384;8.984;2022-09-01T01:01:53;11.30;;;9.57;;
9370;SDS011;4725;48.384;8.984;2022-09-01T01:04:21;9.10;;;8.30;;
9370;SDS011;4725;48.384;8.984;2022-09-01T01:06:50;9.57;;;8.57;;
9370;SDS011;4725;48.384;8.984;2022-09-01T01:09:26;11.80;;;9.17;;
9370;SDS011;4725;48.384;8.984;2022-09-01T01:11:58;12.20;;;9.13;;
9370;SDS011;4725;48.384;8.984;2022-09-01T01:14:27;11.80;;;10.43;;
9370;SDS011;4725;48.384;8.984;2022-09-01T01:16:55;10.80;;;9.50;;
9370;SDS011;4725;48.384;8.984;2022-09-01T01:19:24;9.77;;;8.77;;
9370;SDS011;4725;48.384;8.984;2022-09-01T01:22:17;10.83;;;7.83;;
9370;SDS011;4725;48.384;8.984;2022-09-01T01:25:06;9.90;;;8.90;;
9370;SDS011;4725;48.384;8.984;2022-09-01T01:27:37;11.07;;;9.97;;
9370;SDS011;4725;48.384;8.984;2022-09-01T01:30:07;11.23;;;9.83;;
9370;SDS011;4725;48.384;8.984;2022-09-01T01:32:35;12.53;;;9.43;;
9370;SDS011;4725;48.384;8.984;2022-09-01T01:35:05;12.63;;;9.57;;
9370;SDS011;4725;48.384;8.984;2022-09-01T01:37:36;13.13;;;9.27;;
9370;SDS011;4725;48.384;8.984;2022-09-01T01:40:06;9.40;;;8.30;;
9370;SDS011;4725;48.384;8.984;2022-09-01T01:42:41;9.97;;;9.07;;
9370;SDS011;4725;48.384;8.984;2022-09-01T01:45:10;8.70;;;7.87;;
9370;SDS011;4725;48.384;8.984;2022-09-01T01:47:41;12.20;;;8.13;;
9370;SDS011;4725;48.384;8.984;2022-09-01T01:50:10;10.07;;;9.07;;
9370;SDS011;4725;48.384;8.984;2022-09-01T01:52:38;11.50;;;10.33;;
9370;SDS011;4725;48.384;8.984;2022-09-01T01:55:08;12.57;;;11.27;;
9370;SDS011;4725;48.384;8.984;2022-09-01T01:57:37;12.10;;;10.90;;
9370;SDS011;4725;48.384;8.984;2022-09-01T02:00:06;16.73;;;11.27;;
9370;SDS011;4725;48.384;8.984;2022-09-01T02:02:35;89.30;;;16.53;;
9370;SDS011;4725;48.384;8.984;2022-09-01T02:05:04;68.77;;;16.00;;
9370;SDS011;4725;48.384;8.984;2022-09-01T02:07:32;21.97;;;14.13;;
9370;SDS011;4725;48.384;8.984;2022-09-01T02:09:59;18.80;;;11.63;;
9370;SDS011;4725;48.384;8.984;2022-09-01T02:12:27;50.57;;;14.87;;
9370;SDS011;4725;48.384;8.984;2022-09-01T02:14:56;21.43;;;14.13;;
9370;SDS011;4725;48.384;8.984;2022-09-01T02:17:26;12.57;;;11.23;;
9370;SDS011;4725;48.384;8.984;2022-09-01T02:19:53;14.07;;;12.63;;
9370;SDS011;4725;48.384;8.984;2022-09-01T02:22:21;13.70;;;11.77;;
9370;SDS011;4725;48.384;8.984;2022-09-01T02:24:48;16.17;;;12.50;;
9370;SDS011;4725;48.384;8.984;2022-09-01T02:27:16;14.23;;;12.53;;
9370;SDS011;4725;48.384;8.984;2022-09-01T02:29:47;16.93;;;12.67;;
9370;SDS011;4725;48.384;8.984;2022-09-01T02:32:18;16.13;;;13.33;;
9370;SDS011;4725;48.384;8.984;2022-09-01T02:34:46;14.07;;;12.57;;
9370;SDS011;4725;48.384;8.984;2022-09-01T02:37:17;17.37;;;14.07;;
9370;SDS011;4725;48.384;8.984;2022-09-01T02:39:49;16.60;;;13.37;;
9370;SDS011;4725;48.384;8.984;2022-09-01T02:42:17;12.40;;;9.83;;
9370;SDS011;4725;48.384;8.984;2022-09-01T02:44:53;13.73;;;11.87;;
9370;SDS011;4725;48.384;8.984;2022-09-01T02:47:20;13.90;;;12.43;;
9370;SDS011;4725;48.384;8.984;2022-09-01T02:49:49;10.87;;;9.77;;
9370;SDS011;4725;48.384;8.984;2022-09-01T02:52:16;12.97;;;11.67;;
9370;SDS011;4725;48.384;8.984;2022-09-01T02:54:45;11.30;;;9.90;;
9370;SDS011;4725;48.384;8.984;2022-09-01T02:57:13;10.53;;;9.53;;
9370;SDS011;4725;48.384;8.984;2022-09-01T02:59:40;11.67;;;10.47;;
9370;SDS011;4725;48.384;8.984;2022-09-01T03:02:09;12.87;;;11.67;;
9370;SDS011;4725;48.384;8.984;2022-09-01T03:04:36;11.50;;;10.37;;
9370;SDS011;4725;48.384;8.984;2022-09-01T03:07:03;12.70;;;11.43;;
9370;SDS011;4725;48.384;8.984;2022-09-01T03:09:32;14.77;;;13.27;;
9370;SDS011;4725;48.384;8.984;2022-09-01T03:11:59;12.77;;;11.47;;
9370;SDS011;4725;48.384;8.984;2022-09-01T03:14:26;12.00;;;10.87;;
9370;SDS011;4725;48.384;8.984;2022-09-01T03:16:54;11.70;;;10.70;;
9370;SDS011;4725;48.384;8.984;2022-09-01T03:19:22;14.17;;;12.63;;
9370;SDS011;4725;48.384;8.984;2022-09-01T03:21:49;15.03;;;10.97;;
9370;SDS011;4725;48.384;8.984;2022-09-01T03:24:17;13.70;;;12.37;;
9370;SDS011;4725;48.384;8.984;2022-09-01T03:26:44;12.30;;;11.03;;
9370;SDS011;4725;48.384;8.984;2022-09-01T03:29:14;14.17;;;12.63;;
9370;SDS011;4725;48.384;8.984;2022-09-01T03:31:41;12.90;;;10.87;;
9370;SDS011;4725;48.384;8.984;2022-09-01T03:34:08;13.70;;;12.30;;
9370;SDS011;4725;48.384;8.984;2022-09-01T03:36:38;13.30;;;11.97;;
9370;SDS011;4725;48.384;8.984;2022-09-01T03:39:14;12.43;;;11.23;;
9370;SDS011;4725;48.384;8.984;2022-09-01T03:41:41;12.30;;;11.10;;
9370;SDS011;4725;48.384;8.984;2022-09-01T03:44:09;12.80;;;11.50;;
9370;SDS011;4725;48.384;8.984;2022-09-01T03:46:40;13.23;;;11.83;;
9370;SDS011;4725;48.384;8.984;2022-09-01T03:49:08;14.10;;;12.60;;
9370;SDS011;4725;48.384;8.984;2022-09-01T03:51:42;11.93;;;10.73;;
9370;SDS011;4725;48.384;8.984;2022-09-01T03:54:09;10.70;;;9.67;;
9370;SDS011;4725;48.384;8.984;2022-09-01T03:56:37;11.07;;;10.03;;
9370;SDS011;4725;48.384;8.984;2022-09-01T03:59:07;13.03;;;11.23;;
9370;SDS011;4725;48.384;8.984;2022-09-01T04:01:40;10.13;;;9.13;;
9370;SDS011;4725;48.384;8.984;2022-09-01T04:04:09;12.07;;;10.97;;
9370;SDS011;4725;48.384;8.984;2022-09-01T04:06:38;9.67;;;8.30;;
9370;SDS011;4725;48.384;8.984;2022-09-01T04:09:06;11.67;;;10.47;;
9370;SDS011;4725;48.384;8.984;2022-09-01T04:11:35;13.90;;;12.53;;
9370;SDS011;4725;48.384;8.984;2022-09-01T04:14:03;15.13;;;13.60;;
9370;SDS011;4725;48.384;8.984;2022-09-01T04:16:31;16.80;;;15.10;;
9370;SDS011;4725;48.384;8.984;2022-09-01T04:19:18;18.73;;;14.87;;
9370;SDS011;4725;48.384;8.984;2022-09-01T04:21:50;18.70;;;14.80;;
9370;SDS011;4725;48.384;8.984;2022-09-01T04:24:20;18.80;;;16.80;;
9370;SDS011;4725;48.384;8.984;2022-09-01T04:26:49;15.03;;;13.43;;
9370;SDS011;4725;48.384;8.984;2022-09-01T04:29:17;17.43;;;13.27;;
9370;SDS011;4725;48.384;8.984;2022-09-01T04:31:48;12.90;;;11.43;;
9370;SDS011;4725;48.384;8.984;2022-09-01T04:34:16;11.20;;;10.10;;
9370;SDS011;4725;48.384;8.984;2022-09-01T04:36:44;10.50;;;9.50;;
9370;SDS011;4725;48.384;8.984;2022-09-01T04:39:11;12.90;;;9.00;;
9370;SDS011;4725;48.384;8.984;2022-09-01T04:41:40;12.97;;;10.50;;
9370;SDS011;4725;48.384;8.984;2022-09-01T04:44:08;9.57;;;8.47;;
9370;SDS011;4725;48.384;8.984;2022-09-01T04:46:37;11.57;;;10.37;;
9370;SDS011;4725;48.384;8.984;2022-09-01T04:49:10;10.80;;;9.70;;
9370;SDS011;4725;48.384;8.984;2022-09-01T04:51:44;12.27;;;11.07;;
9370;SDS011;4725;48.384;8.984;2022-09-01T04:54:13;14.70;;;11.83;;
9370;SDS011;4725;48.384;8.984;2022-09-01T04:56:43;13.20;;;11.30;;
9370;SDS011;4725;48.384;8.984;2022-09-01T04:59:14;10.83;;;9.73;;
9370;SDS011;4725;48.384;8.984;2022-09-01T05:01:40;11.43;;;10.23;;
9370;SDS011;4725;48.384;8.984;2022-09-01T05:04:10;12.07;;;10.87;;
9370;SDS011;4725;48.384;8.984;2022-09-01T05:06:41;11.13;;;9.10;;
9370;SDS011;4725;48.384;8.984;2022-09-01T05:09:09;14.63;;;13.07;;
9370;SDS011;4725;48.384;8.984;2022-09-01T05:11:39;13.07;;;11.07;;
9370;SDS011;4725;48.384;8.984;2022-09-01T05:14:11;11.47;;;10.13;;
9370;SDS011;4725;48.384;8.984;2022-09-01T05:16:38;13.70;;;10.60;;
9370;SDS011;4725;48.384;8.984;2022-09-01T05:19:07;16.07;;;10.87;;
9370;SDS011;4725;48.384;8.984;2022-09-01T05:21:38;11.73;;;10.50;;
9370;SDS011;4725;48.384;8.984;2022-09-01T05:24:10;10.97;;;9.73;;
9370;SDS011;4725;48.384;8.984;2022-09-01T05:26:39;9.90;;;8.93;;
9370;SDS011;4725;48.384;8.984;2022-09-01T05:29:06;11.20;;;10.10;;
9370;SDS011;4725;48.384;8.984;2022-09-01T05:31:39;11.23;;;10.03;;
9370;SDS011;4725;48.384;8.984;2022-09-01T05:34:07;11.70;;;10.50;;
9370;SDS011;4725;48.384;8.984;2022-09-01T05:36:35;10.13;;;9.13;;
9370;SDS011;4725;48.384;8.984;2022-09-01T05:39:04;10.57;;;9.37;;
9370;SDS011;4725;48.384;8.984;2022-09-01T05:41:31;9.60;;;8.70;;
9370;SDS011;4725;48.384;8.984;2022-09-01T05:44:00;9.40;;;8.50;;
9370;SDS011;4725;48.384;8.984;2022-09-01T05:46:32;10.27;;;9.20;;
9370;SDS011;4725;48.384;8.984;2022-09-01T05:49:02;10.97;;;9.87;;
9370;SDS011;4725;48.384;8.984;2022-09-01T05:51:31;9.50;;;8.57;;
9370;SDS011;4725;48.384;8.984;2022-09-01T05:54:01;9.53;;;8.67;;
9370;SDS011;4725;48.384;8.984;2022-09-01T05:56:29;16.10;;;14.50;;
9370;SDS011;4725;48.384;8.984;2022-09-01T05:58:58;19.37;;;17.43;;
9370;SDS011;4725;48.384;8.984;2022-09-01T06:01:26;17.77;;;15.53;;
9370;SDS011;4725;48.384;8.984;2022-09-01T06:03:58;17.03;;;15.27;;
9370;SDS011;4725;48.384;8.984;2022-09-01T06:06:34;16.77;;;14.77;;
9370;SDS011;4725;48.384;8.984;2022-09-01T06:09:04;19.60;;;17.10;;
9370;SDS011;4725;48.384;8.984;2022-09-01T06:11:32;17.07;;;15.33;;
9370;SDS011;4725;48.384;8.984;2022-09-01T06:14:00;15.90;;;14.27;;
9370;SDS011;4725;48.384;8.984;2022-09-01T06:16:27;19.07;;;16.03;;
9370;SDS011;4725;48.384;8.984;2022-09-01T06:18:55;16.47;;;14.67;;
9370;SDS011;4725;48.384;8.984;2022-09-01T06:21:24;16.97;;;14.83;;
9370;SDS011;4725;48.384;8.984;2022-09-01T06:23:54;18.60;;;14.70;;
9370;SDS011;4725;48.384;8.984;2022-09-01T06:26:23;17.37;;;15.33;;
9370;SDS011;4725;48.384;8.984;2022-09-01T06:28:52;16.90;;;15.13;;
9370;SDS011;4725;48.384;8.984;2022-09-01T06:31:20;18.10;;;16.20;;
9370;SDS011;4725;48.384;8.984;2022-09-01T06:33:49;17.33;;;14.63;;
9370;SDS011;4725;48.384;8.984;2022-09-01T06:36:17;16.33;;;13.97;;
9370;SDS011;4725;48.384;8.984;2022-09-01T06:38:46;15.00;;;13.40;;
9370;SDS011;4725;48.384;8.984;2022-09-01T06:41:16;14.23;;;12.83;;
9370;SDS011;4725;48.384;8.984;2022-09-01T06:43:44;15.13;;;13.20;;
9370;SDS011;4725;48.384;8.984;2022-09-01T06:46:13;18.73;;;15.63;;
9370;SDS011;4725;48.384;8.984;2022-09-01T06:48:40;19.83;;;14.77;;
9370;SDS011;4725;48.384;8.984;2022-09-01T06:51:11;17.40;;;14.80;;
9370;SDS011;4725;48.384;8.984;2022-09-01T06:53:39;14.53;;;13.03;;
9370;SDS011;4725;48.384;8.984;2022-09-01T06:56:06;19.27;;;17.27;;
9370;SDS011;4725;48.384;8.984;2022-09-01T06:58:39;14.43;;;13.03;;
9370;SDS011;4725;48.384;8.984;2022-09-01T07:01:12;14.20;;;12.80;;
9370;SDS011;4725;48.384;8.984;2022-09-01T07:03:44;16.40;;;14.63;;
9370;SDS011;4725;48.384;8.984;2022-09-01T07:06:13;15.43;;;12.43;;
9370;SDS011;4725;48.384;8.984;2022-09-01T07:08:40;15.50;;;13.43;;
9370;SDS011;4725;48.384;8.984;2022-09-01T07:11:15;14.00;;;12.60;;
9370;SDS011;4725;48.384;8.984;2022-09-01T07:13:53;13.40;;;12.10;;
9370;SDS011;4725;48.384;8.984;2022-09-01T07:16:23;13.10;;;11.80;;
9370;SDS011;4725;48.384;8.984;2022-09-01T07:18:51;12.73;;;11.63;;
9370;SDS011;4725;48.384;8.984;2022-09-01T07:21:20;12.95;;;11.65;;
9370;SDS011;4725;48.384;8.984;2022-09-01T07:23:47;12.40;;;11.25;;
9370;SDS011;4725;48.384;8.984;2022-09-01T07:26:15;11.93;;;10.73;;
9370;SDS011;4725;48.384;8.984;2022-09-01T07:28:43;13.55;;;12.32;;
9370;SDS011;4725;48.384;8.984;2022-09-01T07:31:17;14.93;;;11.43;;
9370;SDS011;4725;48.384;8.984;2022-09-01T07:33:47;12.25;;;10.93;;
9370;SDS011;4725;48.384;8.984;2022-09-01T07:36:15;14.07;;;12.68;;
9370;SDS011;4725;48.384;8.984;2022-09-01T07:38:42;15.13;;;13.20;;
9370;SDS011;4725;48.384;8.984;2022-09-01T07:41:09;13.57;;;12.07;;
9370;SDS011;4725;48.384;8.984;2022-09-01T07:43:37;14.23;;;12.88;;
9370;SDS011;4725;48.384;8.984;2022-09-01T07:46:09;12.98;;;11.77;;
9370;SDS011;4725;48.384;8.984;2022-09-01T07:48:38;13.77;;;10.88;;
9370;SDS011;4725;48.384;8.984;2022-09-01T07:51:05;11.90;;;10.85;;
9370;SDS011;4725;48.384;8.984;2022-09-01T07:53:34;12.60;;;11.27;;
9370;SDS011;4725;48.384;8.984;2022-09-01T07:56:04;11.73;;;10.65;;
9370;SDS011;4725;48.384;8.984;2022-09-01T07:58:34;12.77;;;11.05;;
9370;SDS011;4725;48.384;8.984;2022-09-01T08:01:05;11.63;;;10.52;;
9370;SDS011;4725;48.384;8.984;2022-09-01T08:03:33;12.00;;;10.82;;
9370;SDS011;4725;48.384;8.984;2022-09-01T08:06:05;11.45;;;10.45;;
9370;SDS011;4725;48.384;8.984;2022-09-01T08:08:35;11.60;;;10.57;;
9370;SDS011;4725;48.384;8.984;2022-09-01T08:11:04;12.63;;;10.48;;
9370;SDS011;4725;48.384;8.984;2022-09-01T08:13:31;12.02;;;10.85;;
9370;SDS011;4725;48.384;8.984;2022-09-01T08:16:01;10.77;;;9.75;;
9370;SDS011;4725;48.384;8.984;2022-09-01T08:18:29;11.48;;;10.48;;
9370;SDS011;4725;48.384;8.984;2022-09-01T08:20:56;10.98;;;9.93;;
9370;SDS011;4725;48.384;8.984;2022-09-01T08:23:24;12.10;;;10.60;;
9370;SDS011;4725;48.384;8.984;2022-09-01T08:25:51;12.40;;;11.15;;
9370;SDS011;4725;48.384;8.984;2022-09-01T08:28:19;13.13;;;11.18;;
9370;SDS011;4725;48.384;8.984;2022-09-01T08:30:46;12.30;;;10.27;;
9370;SDS011;4725;48.384;8.984;2022-09-01T08:33:13;11.52;;;10.32;;
9370;SDS011;4725;48.384;8.984;2022-09-01T08:35:41;12.02;;;10.82;;
9370;SDS011;4725;48.384;8.984;2022-09-01T08:38:11;13.63;;;11.27;;
9370;SDS011;4725;48.384;8.984;2022-09-01T08:40:40;13.32;;;11.43;;
9370;SDS011;4725;48.384;8.984;2022-09-01T08:43:11;13.15;;;11.05;;
9370;SDS011;4725;48.384;8.984;2022-09-01T08:45:45;9.63;;;8.32;;
9370;SDS011;4725;48.384;8.984;2022-09-01T08:48:16;9.57;;;8.52;;
9370;SDS011;4725;48.384;8.984;2022-09-01T08:50:48;9.60;;;8.75;;
9370;SDS011;4725;48.384;8.984;2022-09-01T08:53:21;10.38;;;9.38;;
9370;SDS011;4725;48.384;8.984;2022-09-01T08:55:56;9.55;;;8.57;;
9370;SDS011;4725;48.384;8.984;2022-09-01T08:58:24;10.00;;;9.00;;
9370;SDS011;4725;48.384;8.984;2022-09-01T09:00:58;8.35;;;7.65;;
9370;SDS011;4725;48.384;8.984;2022-09-01T09:03:31;9.65;;;8.65;;
9370;SDS011;4725;48.384;8.984;2022-09-01T09:06:07;7.80;;;7.07;;
9370;SDS011;4725;48.384;8.984;2022-09-01T09:11:42;10.07;;;9.05;;
9370;SDS011;4725;48.384;8.984;2022-09-01T09:14:24;8.50;;;7.70;;
9370;SDS011;4725;48.384;8.984;2022-09-01T09:17:00;10.57;;;6.78;;
9370;SDS011;4725;48.384;8.984;2022-09-01T09:19:29;7.38;;;6.70;;
9370;SDS011;4725;48.384;8.984;2022-09-01T09:21:58;7.35;;;6.65;;
9370;SDS011;4725;48.384;8.984;2022-09-01T09:24:27;7.93;;;7.13;;
9370;SDS011;4725;48.384;8.984;2022-09-01T09:27:14;7.28;;;6.30;;
9370;SDS011;4725;48.384;8.984;2022-09-01T09:29:44;9.15;;;6.57;;
9370;SDS011;4725;48.384;8.984;2022-09-01T09:32:12;6.38;;;5.78;;
9370;SDS011;4725;48.384;8.984;2022-09-01T09:34:40;7.57;;;6.25;;
9370;SDS011;4725;48.384;8.984;2022-09-01T09:37:19;5.82;;;5.07;;
9370;SDS011;4725;48.384;8.984;2022-09-01T09:40:02;5.43;;;4.93;;
9370;SDS011;4725;48.384;8.984;2022-09-01T09:42:34;5.10;;;4.70;;
9370;SDS011;4725;48.384;8.984;2022-09-01T09:45:04;5.22;;;4.72;;
9370;SDS011;4725;48.384;8.984;2022-09-01T09:47:39;7.55;;;6.05;;
9370;SDS011;4725;48.384;8.984;2022-09-01T09:50:15;6.38;;;4.82;;
9370;SDS011;4725;48.384;8.984;2022-09-01T09:52:45;4.35;;;3.95;;
9370;SDS011;4725;48.384;8.984;2022-09-01T09:55:23;5.25;;;4.00;;
9370;SDS011;4725;48.384;8.984;2022-09-01T09:57:54;5.20;;;4.70;;
9370;SDS011;4725;48.384;8.984;2022-09-01T10:00:24;5.82;;;4.32;;
9370;SDS011;4725;48.384;8.984;2022-09-01T10:02:57;5.40;;;4.75;;
9370;SDS011;4725;48.384;8.984;2022-09-01T10:05:34;4.63;;;3.90;;
9370;SDS011;4725;48.384;8.984;2022-09-01T10:08:04;4.50;;;4.10;;
9370;SDS011;4725;48.384;8.984;2022-09-01T10:10:36;5.97;;;4.35;;
9370;SDS011;4725;48.384;8.984;2022-09-01T10:13:09;5.15;;;4.65;;
9370;SDS011;4725;48.384;8.984;2022-09-01T10:15:38;4.35;;;3.92;;
9370;SDS011;4725;48.384;8.984;2022-09-01T10:18:09;6.82;;;4.53;;
9370;SDS011;4725;48.384;8.984;2022-09-01T10:20:44;6.63;;;4.15;;
9370;SDS011;4725;48.384;8.984;2022-09-01T10:23:17;4.32;;;4.03;;
9370;SDS011;4725;48.384;8.984;2022-09-01T10:25:44;3.80;;;3.50;;
9370;SDS011;4725;48.384;8.984;2022-09-01T10:28:16;4.03;;;3.40;;
9370;SDS011;4725;48.384;8.984;2022-09-01T10:30:48;3.80;;;3.50;;
9370;SDS011;4725;48.384;8.984;2022-09-01T10:33:20;2.78;;;2.58;;
9370;SDS011;4725;48.384;8.984;2022-09-01T10:35:48;2.60;;;2.40;;
9370;SDS011;4725;48.384;8.984;2022-09-01T10:38:18;2.60;;;2.40;;
9370;SDS011;4725;48.384;8.984;2022-09-01T10:40:47;2.47;;;2.20;;
9370;SDS011;4725;48.384;8.984;2022-09-01T10:43:41;2.33;;;2.20;;
9370;SDS011;4725;48.384;8.984;2022-09-01T10:55:21;2.22;;;2.03;;
9370;SDS011;4725;48.384;8.984;2022-09-01T10:57:53;2.17;;;2.08;;
9370;SDS011;4725;48.384;8.984;2022-09-01T11:09:24;2.38;;;2.15;;
9370;SDS011;4725;48.384;8.984;2022-09-01T11:12:07;2.72;;;2.53;;
9370;SDS011;4725;48.384;8.984;2022-09-01T11:14:55;2.58;;;2.38;;
9370;SDS011;4725;48.384;8.984;2022-09-01T11:17:24;2.80;;;2.40;;
9370;SDS011;4725;48.384;8.984;2022-09-01T11:19:55;2.38;;;2.17;;
9370;SDS011;4725;48.384;8.984;2022-09-01T11:22:34;3.47;;;2.72;;
9370;SDS011;4725;48.384;8.984;2022-09-01T11:25:06;3.30;;;3.00;;
9370;SDS011;4725;48.384;8.984;2022-09-01T11:30:41;2.75;;;2.40;;
9370;SDS011;4725;48.384;8.984;2022-09-01T11:36:13;3.35;;;2.55;;
9370;SDS011;4725;48.384;8.984;2022-09-01T11:38:48;2.95;;;2.45;;
9370;SDS011;4725;48.384;8.984;2022-09-01T11:41:20;2.63;;;2.42;;
9370;SDS011;4725;48.384;8.984;2022-09-01T11:43:49;2.45;;;2.25;;
9370;SDS011;4725;48.384;8.984;2022-09-01T11:46:20;2.58;;;2.38;;
9370;SDS011;4725;48.384;8.984;2022-09-01T11:48:51;2.42;;;2.22;;
9370;SDS011;4725;48.384;8.984;2022-09-01T11:51:18;2.80;;;2.50;;
9370;SDS011;4725;48.384;8.984;2022-09-01T11:53:46;2.78;;;2.20;;
9370;SDS011;4725;48.384;8.984;2022-09-01T11:56:15;2.28;;;2.08;;
9370;SDS011;4725;48.384;8.984;2022-09-01T11:58:44;2.30;;;2.10;;
9370;SDS011;4725;48.384;8.984;2022-09-01T12:01:13;2.88;;;2.67;;
9370;SDS011;4725;48.384;8.984;2022-09-01T12:03:42;2.90;;;2.70;;
9370;SDS011;4725;48.384;8.984;2022-09-01T12:06:17;2.90;;;2.70;;
9370;SDS011;4725;48.384;8.984;2022-09-01T12:08:50;2.70;;;2.50;;
9370;SDS011;4725;48.384;8.984;2022-09-01T12:11:21;2.95;;;2.67;;
9370;SDS011;4725;48.384;8.984;2022-09-01T12:13:59;2.88;;;2.58;;
9370;SDS011;4725;48.384;8.984;2022-09-01T12:16:27;2.65;;;2.45;;
9370;SDS011;4725;48.384;8.984;2022-09-01T12:18:58;2.67;;;2.45;;
9370;SDS011;4725;48.384;8.984;2022-09-01T12:21:29;3.78;;;3.30;;
9370;SDS011;4725;48.384;8.984;2022-09-01T12:24:09;5.43;;;2.47;;
9370;SDS011;4725;48.384;8.984;2022-09-01T12:26:38;2.38;;;2.17;;
9370;SDS011;4725;48.384;8.984;2022-09-01T12:29:06;2.42;;;2.22;;
9370;SDS011;4725;48.384;8.984;2022-09-01T12:31:33;2.53;;;2.33;;
9370;SDS011;4725;48.384;8.984;2022-09-01T12:34:01;2.20;;;2.00;;
9370;SDS011;4725;48.384;8.984;2022-09-01T12:36:31;2.40;;;2.20;;
9370;SDS011;4725;48.384;8.984;2022-09-01T12:41:45;2.22;;;2.03;;
9370;SDS011;4725;48.384;8.984;2022-09-01T12:44:26;2.25;;;1.90;;
9370;SDS011;4725;48.384;8.984;2022-09-01T12:46:56;1.90;;;1.80;;
9370;SDS011;4725;48.384;8.984;2022-09-01T12:49:26;3.08;;;2.28;;
9370;SDS011;4725;48.384;8.984;2022-09-01T12:52:06;6.95;;;2.22;;
9370;SDS011;4725;48.384;8.984;2022-09-01T12:54:44;2.92;;;2.40;;
9370;SDS011;4725;48.384;8.984;2022-09-01T12:57:19;2.72;;;2.50;;
9370;SDS011;4725;48.384;8.984;2022-09-01T13:00:04;3.15;;;2.85;;
9370;SDS011;4725;48.384;8.984;2022-09-01T13:02:34;3.42;;;2.17;;
9370;SDS011;4725;48.384;8.984;2022-09-01T13:05:19;3.72;;;1.98;;
9370;SDS011;4725;48.384;8.984;2022-09-01T13:07:48;2.05;;;1.85;;
9370;SDS011;4725;48.384;8.984;2022-09-01T13:10:18;2.00;;;1.90;;
9370;SDS011;4725;48.384;8.984;2022-09-01T13:12:46;2.40;;;2.20;;
9370;SDS011;4725;48.384;8.984;2022-09-01T13:15:13;2.22;;;2.03;;
9370;SDS011;4725;48.384;8.984;2022-09-01T13:17:40;2.03;;;1.83;;
9370;SDS011;4725;48.384;8.984;2022-09-01T13:20:07;3.08;;;2.28;;
9370;SDS011;4725;48.384;8.984;2022-09-01T13:22:36;2.25;;;2.05;;
9370;SDS011;4725;48.384;8.984;2022-09-01T13:25:07;2.75;;;2.17;;
9370;SDS011;4725;48.384;8.984;2022-09-01T13:27:35;2.42;;;2.20;;
9370;SDS011;4725;48.384;8.984;2022-09-01T13:30:02;4.10;;;2.25;;
9370;SDS011;4725;48.384;8.984;2022-09-01T13:32:31;2.38;;;2.17;;
9370;SDS011;4725;48.384;8.984;2022-09-01T13:34:58;3.17;;;2.10;;
9370;SDS011;4725;48.384;8.984;2022-09-01T13:37:25;2.45;;;1.88;;
9370;SDS011;4725;48.384;8.984;2022-09-01T13:39:51;2.05;;;1.80;;
9370;SDS011;4725;48.384;8.984;2022-09-01T13:42:20;2.28;;;2.15;;
9370;SDS011;4725;48.384;8.984;2022-09-01T13:44:47;2.80;;;1.92;;
9370;SDS011;4725;48.384;8.984;2022-09-01T13:47:14;1.90;;;1.80;;
9370;SDS011;4725;48.384;8.984;2022-09-01T13:49:41;2.10;;;2.00;;
9370;SDS011;4725;48.384;8.984;2022-09-01T13:52:08;2.35;;;2.15;;
9370;SDS011;4725;48.384;8.984;2022-09-01T13:54:37;2.35;;;2.15;;
9370;SDS011;4725;48.384;8.984;2022-09-01T13:57:04;2.03;;;1.73;;
9370;SDS011;4725;48.384;8.984;2022-09-01T13:59:32;2.30;;;2.10;;
9370;SDS011;4725;48.384;8.984;2022-09-01T14:01:59;2.08;;;1.98;;
9370;SDS011;4725;48.384;8.984;2022-09-01T14:04:26;2.33;;;2.20;;
9370;SDS011;4725;48.384;8.984;2022-09-01T14:06:53;2.70;;;2.25;;
9370;SDS011;4725;48.384;8.984;2022-09-01T14:09:20;2.65;;;2.45;;
9370;SDS011;4725;48.384;8.984;2022-09-01T14:11:47;3.10;;;2.28;;
9370;SDS011;4725;48.384;8.984;2022-09-01T14:14:18;2.67;;;2.50;;
9370;SDS011;4725;48.384;8.984;2022-09-01T14:16:47;3.15;;;2.30;;
9370;SDS011;4725;48.384;8.984;2022-09-01T14:19:14;2.50;;;2.30;;
9370;SDS011;4725;48.384;8.984;2022-09-01T14:21:42;2.53;;;2.33;;
9370;SDS011;4725;48.384;8.984;2022-09-01T14:24:11;4.90;;;2.25;;
9370;SDS011;4725;48.384;8.984;2022-09-01T14:26:39;2.10;;;2.00;;
9370;SDS011;4725;48.384;8.984;2022-09-01T14:29:06;2.42;;;2.22;;
9370;SDS011;4725;48.384;8.984;2022-09-01T14:31:33;4.22;;;2.40;;
9370;SDS011;4725;48.384;8.984;2022-09-01T14:34:03;2.70;;;2.50;;
9370;SDS011;4725;48.384;8.984;2022-09-01T14:36:30;2.95;;;2.40;;
9370;SDS011;4725;48.384;8.984;2022-09-01T14:38:58;4.55;;;3.00;;
9370;SDS011;4725;48.384;8.984;2022-09-01T14:41:25;2.72;;;2.40;;
9370;SDS011;4725;48.384;8.984;2022-09-01T14:43:52;2.60;;;2.40;;
9370;SDS011;4725;48.384;8.984;2022-09-01T14:46:21;3.13;;;2.33;;
9370;SDS011;4725;48.384;8.984;2022-09-01T14:48:49;2.80;;;2.30;;
9370;SDS011;4725;48.384;8.984;2022-09-01T14:51:21;2.22;;;2.03;;
9370;SDS011;4725;48.384;8.984;2022-09-01T14:53:50;2.53;;;2.17;;
9370;SDS011;4725;48.384;8.984;2022-09-01T14:56:17;2.75;;;2.55;;
9370;SDS011;4725;48.384;8.984;2022-09-01T14:58:45;3.90;;;2.40;;
9370;SDS011;4725;48.384;8.984;2022-09-01T15:01:13;5.43;;;2.90;;
9370;SDS011;4725;48.384;8.984;2022-09-01T15:03:42;4.95;;;2.70;;
9370;SDS011;4725;48.384;8.984;2022-09-01T15:06:10;2.78;;;2.50;;
9370;SDS011;4725;48.384;8.984;2022-09-01T15:08:40;4.32;;;2.50;;
9370;SDS011;4725;48.384;8.984;2022-09-01T15:11:08;3.65;;;2.50;;
9370;SDS011;4725;48.384;8.984;2022-09-01T15:13:36;2.95;;;2.75;;
9370;SDS011;4725;48.384;8.984;2022-09-01T15:16:04;2.92;;;2.60;;
9370;SDS011;4725;48.384;8.984;2022-09-01T15:18:39;3.30;;;3.00;;
9370;SDS011;4725;48.384;8.984;2022-09-01T15:21:06;4.03;;;2.97;;
9370;SDS011;4725;48.384;8.984;2022-09-01T15:23:33;2.78;;;2.58;;
9370;SDS011;4725;48.384;8.984;2022-09-01T15:26:02;4.25;;;2.53;;
9370;SDS011;4725;48.384;8.984;2022-09-01T15:28:29;2.72;;;2.53;;
9370;SDS011;4725;48.384;8.984;2022-09-01T15:30:56;2.67;;;2.38;;
9370;SDS011;4725;48.384;8.984;2022-09-01T15:33:24;2.58;;;2.38;;
9370;SDS011;4725;48.384;8.984;2022-09-01T15:35:51;2.85;;;2.38;;
9370;SDS011;4725;48.384;8.984;2022-09-01T15:38:18;2.53;;;2.33;;
9370;SDS011;4725;48.384;8.984;2022-09-01T15:40:45;2.45;;;2.25;;
9370;SDS011;4725;48.384;8.984;2022-09-01T15:43:15;2.50;;;2.30;;
9370;SDS011;4725;48.384;8.984;2022-09-01T15:45:44;2.63;;;2.10;;
9370;SDS011;4725;48.384;8.984;2022-09-01T15:48:11;2.40;;;2.20;;